createdAt,value
2023-02-22T00:02:42.123Z,18.27
2023-02-22T00:05:17.226Z,18.24
2023-02-22T00:07:45.119Z,18.23
2023-02-22T00:10:23.081Z,18.12
2023-02-22T00:13:00.389Z,18.13
2023-02-22T00:15:30.265Z,18.15
2023-02-22T00:18:00.319Z,18.07
2023-02-22T00:20:30.936Z,18.11
2023-02-22T00:23:02.098Z,18.07
2023-02-22T00:25:36.104Z,18.08
2023-02-22T00:28:05.306Z,18.07
2023-02-22T00:30:34.225Z,18.11
2023-02-22T00:33:02.397Z,18.18
2023-02-22T00:35:34.157Z,18.13
2023-02-22T00:38:04.579Z,17.95
2023-02-22T00:40:36.266Z,18.01
2023-02-22T00:43:07.861Z,18.00
2023-02-22T00:45:37.088Z,17.89
2023-02-22T00:48:06.931Z,17.94
2023-02-22T00:50:35.165Z,17.91
2023-02-22T00:53:08.408Z,17.91
2023-02-22T00:55:41.409Z,17.82
2023-02-22T00:58:16.810Z,17.83
2023-02-22T01:00:48.038Z,17.71
2023-02-22T01:03:18.808Z,17.83
2023-02-22T01:05:50.627Z,17.85
2023-02-22T01:08:33.152Z,17.79
2023-02-22T01:11:00.522Z,17.75
2023-02-22T01:13:50.918Z,17.90
2023-02-22T01:16:33.772Z,17.89
2023-02-22T01:19:14.729Z,17.85
2023-02-22T01:21:45.538Z,17.92
2023-02-22T01:24:34.057Z,17.82
2023-02-22T01:27:04.993Z,17.81
2023-02-22T01:29:49.329Z,17.77
2023-02-22T01:32:21.094Z,17.77
2023-02-22T01:34:49.838Z,17.77
2023-02-22T01:37:27.795Z,17.83
2023-02-22T01:40:10.153Z,17.77
2023-02-22T01:42:41.309Z,17.73
2023-02-22T01:45:30.682Z,17.72
2023-02-22T01:48:22.606Z,17.77
2023-02-22T01:51:13.038Z,17.75
2023-02-22T01:54:09.639Z,17.78
2023-02-22T01:56:40.816Z,17.77
2023-02-22T02:02:25.447Z,17.74
2023-02-22T02:04:56.690Z,17.73
2023-02-22T02:07:25.076Z,17.72
2023-02-22T02:10:00.455Z,17.70
2023-02-22T02:12:34.594Z,17.67
2023-02-22T02:15:18.618Z,17.67
2023-02-22T02:17:47.682Z,17.68
2023-02-22T02:20:24.304Z,17.67
2023-02-22T02:23:30.044Z,17.67
2023-02-22T02:26:15.413Z,17.65
2023-02-22T02:28:42.757Z,17.73
2023-02-22T02:31:37.196Z,17.64
2023-02-22T02:34:33.376Z,17.66
2023-02-22T02:37:11.986Z,17.71
2023-02-22T02:39:53.846Z,17.70
2023-02-22T02:42:28.189Z,17.72
2023-02-22T02:45:10.278Z,17.68
2023-02-22T02:47:55.964Z,17.64
2023-02-22T02:50:46.453Z,17.64
2023-02-22T02:53:17.392Z,17.62
2023-02-22T02:55:50.234Z,17.60
2023-02-22T02:58:23.552Z,17.66
2023-02-22T03:00:57.497Z,17.62
2023-02-22T03:03:40.908Z,17.58
2023-02-22T03:06:33.164Z,17.56
2023-02-22T03:09:43.782Z,17.57
2023-02-22T03:12:32.829Z,17.49
2023-02-22T03:15:47.238Z,17.52
2023-02-22T03:18:33.611Z,17.47
2023-02-22T03:21:24.224Z,17.50
2023-02-22T03:24:27.185Z,17.43
2023-02-22T03:27:06.294Z,17.39
2023-02-22T03:29:44.742Z,17.40
2023-02-22T03:32:20.746Z,17.36
2023-02-22T03:34:57.097Z,17.25
2023-02-22T03:37:34.259Z,17.36
2023-02-22T03:40:14.626Z,17.40
2023-02-22T03:42:55.269Z,17.40
2023-02-22T03:45:29.167Z,17.38
2023-02-22T03:48:14.717Z,17.38
2023-02-22T03:50:49.302Z,17.39
2023-02-22T03:53:26.292Z,17.32
2023-02-22T03:55:59.429Z,17.32
2023-02-22T03:58:33.192Z,17.28
2023-02-22T04:01:00.587Z,17.31
2023-02-22T04:03:29.068Z,17.26
2023-02-22T04:05:56.405Z,17.29
2023-02-22T04:08:24.682Z,17.20
2023-02-22T04:10:52.097Z,17.22
2023-02-22T04:13:22.684Z,17.29
2023-02-22T04:15:54.257Z,17.22
2023-02-22T04:18:26.940Z,17.17
2023-02-22T04:20:57.016Z,17.14
2023-02-22T04:23:44.467Z,17.12
2023-02-22T04:26:12.568Z,17.04
2023-02-22T04:28:40.350Z,17.02
2023-02-22T04:31:17.631Z,17.03
2023-02-22T04:33:45.446Z,17.04
2023-02-22T04:36:16.784Z,17.03
2023-02-22T04:38:47.401Z,17.04
2023-02-22T04:41:15.028Z,17.05
2023-02-22T04:43:42.547Z,17.00
2023-02-22T04:46:19.415Z,17.02
2023-02-22T04:48:46.705Z,16.97
2023-02-22T04:51:16.443Z,16.98
2023-02-22T04:54:04.360Z,16.94
2023-02-22T04:56:47.125Z,16.95
2023-02-22T04:59:19.764Z,16.93
2023-02-22T05:01:54.214Z,16.90
2023-02-22T05:04:23.756Z,16.90
2023-02-22T05:06:56.749Z,16.84
2023-02-22T05:09:37.066Z,16.80
2023-02-22T05:12:04.924Z,16.83
2023-02-22T05:14:32.178Z,16.81
2023-02-22T05:16:59.786Z,16.77
2023-02-22T05:19:27.160Z,16.76
2023-02-22T05:22:06.523Z,16.74
2023-02-22T05:24:38.307Z,16.71
2023-02-22T05:27:07.996Z,16.68
2023-02-22T05:29:41.945Z,16.68
2023-02-22T05:32:09.276Z,16.64
2023-02-22T05:34:51.684Z,16.58
2023-02-22T05:37:28.872Z,16.55
2023-02-22T05:40:01.822Z,16.53
2023-02-22T05:42:29.158Z,16.52
2023-02-22T05:45:10.761Z,16.46
2023-02-22T05:47:49.580Z,16.50
2023-02-22T05:53:09.207Z,16.53
2023-02-22T05:55:42.346Z,16.48
2023-02-22T05:58:12.892Z,16.48
2023-02-22T06:00:47.135Z,16.46
2023-02-22T06:03:39.559Z,16.48
2023-02-22T06:06:15.683Z,16.51
2023-02-22T06:08:46.515Z,16.53
2023-02-22T06:11:17.238Z,16.49
2023-02-22T06:13:54.107Z,16.44
2023-02-22T06:16:27.774Z,16.45
2023-02-22T06:18:57.721Z,16.41
2023-02-22T06:21:28.169Z,16.32
2023-02-22T06:24:02.861Z,16.32
2023-02-22T06:26:55.753Z,16.27
2023-02-22T06:29:24.572Z,16.28
2023-02-22T06:31:52.299Z,16.28
2023-02-22T06:34:28.369Z,16.20
2023-02-22T06:37:00.856Z,16.20
2023-02-22T06:39:35.449Z,16.22
2023-02-22T06:42:10.460Z,16.21
2023-02-22T06:44:37.643Z,16.21
2023-02-22T06:47:10.601Z,16.28
2023-02-22T06:49:37.854Z,16.30
2023-02-22T06:52:07.018Z,16.33
2023-02-22T06:54:40.019Z,16.24
2023-02-22T06:57:10.413Z,16.27
2023-02-22T06:59:43.109Z,16.24
2023-02-22T07:02:24.022Z,16.21
2023-02-22T07:05:03.374Z,16.18
2023-02-22T07:07:30.614Z,16.25
2023-02-22T07:12:43.221Z,16.21
2023-02-22T07:15:26.060Z,16.28
2023-02-22T07:18:11.482Z,16.25
2023-02-22T07:20:44.559Z,16.28
2023-02-22T07:23:23.295Z,16.32
2023-02-22T07:28:43.589Z,16.38
2023-02-22T07:31:11.851Z,16.41
2023-02-22T07:33:41.941Z,16.48
2023-02-22T07:36:13.977Z,16.58
2023-02-22T07:38:41.286Z,16.59
2023-02-22T07:41:11.706Z,16.62
2023-02-22T07:43:48.503Z,16.69
2023-02-22T07:46:41.972Z,16.70
2023-02-22T07:49:15.155Z,16.76
2023-02-22T07:51:42.737Z,16.80
2023-02-22T07:54:10.299Z,16.89
2023-02-22T07:56:48.430Z,16.90
2023-02-22T07:59:20.189Z,17.00
2023-02-22T08:02:09.839Z,17.03
2023-02-22T08:04:37.689Z,17.03
2023-02-22T08:07:06.401Z,17.05
2023-02-22T08:09:39.552Z,17.13
2023-02-22T08:12:11.830Z,17.21
2023-02-22T08:14:39.953Z,17.27
2023-02-22T08:17:09.007Z,17.40
2023-02-22T08:19:37.342Z,17.45
2023-02-22T08:22:04.860Z,17.48
2023-02-22T08:27:14.843Z,17.69
2023-02-22T08:29:42.274Z,17.79
2023-02-22T08:32:11.444Z,17.82
2023-02-22T08:34:38.727Z,17.92
2023-02-22T08:37:06.062Z,18.00
2023-02-22T08:39:45.126Z,18.07
2023-02-22T08:42:19.211Z,18.17
2023-02-22T08:44:50.199Z,18.33
2023-02-22T08:47:28.269Z,18.51
2023-02-22T08:50:01.626Z,18.67
2023-02-22T08:52:37.002Z,18.85
2023-02-22T08:55:11.037Z,18.90
2023-02-22T08:57:48.308Z,19.07
2023-02-22T09:00:40.452Z,19.16
2023-02-22T09:03:23.016Z,19.36
2023-02-22T09:05:59.204Z,19.54
2023-02-22T09:08:34.539Z,19.75
2023-02-22T09:13:53.712Z,20.31
2023-02-22T09:16:26.111Z,20.50
2023-02-22T09:19:04.273Z,20.52
2023-02-22T09:21:42.857Z,20.52
2023-02-22T09:24:23.666Z,20.53
2023-02-22T09:27:03.945Z,20.85
2023-02-22T09:29:42.818Z,21.06
2023-02-22T09:32:47.131Z,21.12
2023-02-22T09:35:23.123Z,21.18
2023-02-22T09:38:08.530Z,21.32
2023-02-22T09:41:01.215Z,21.43
2023-02-22T09:44:13.691Z,21.41
2023-02-22T09:46:57.424Z,21.67
2023-02-22T09:53:28.837Z,21.81
2023-02-22T09:56:26.764Z,21.83
2023-02-22T09:59:04.102Z,21.65
2023-02-22T10:01:43.677Z,21.69
2023-02-22T10:07:29.055Z,21.45
2023-02-22T10:10:15.275Z,21.33
2023-02-22T10:13:22.334Z,20.95
2023-02-22T10:16:07.562Z,21.14
2023-02-22T10:19:14.410Z,20.64
2023-02-22T10:22:32.974Z,20.82
2023-02-22T10:25:24.825Z,20.73
2023-02-22T10:28:21.298Z,21.18
2023-02-22T10:31:08.583Z,21.35
2023-02-22T10:33:55.809Z,20.89
2023-02-22T10:36:48.424Z,20.74
2023-02-22T10:39:36.924Z,20.74
2023-02-22T10:42:34.244Z,20.78
2023-02-22T10:45:34.776Z,20.71
2023-02-22T10:48:18.781Z,21.15
2023-02-22T10:56:57.272Z,21.23
2023-02-22T10:59:36.462Z,21.61
2023-02-22T11:02:15.711Z,21.70
2023-02-22T11:05:07.019Z,22.24
2023-02-22T11:07:48.727Z,22.43
2023-02-22T11:10:51.304Z,23.03
2023-02-22T11:13:45.284Z,23.14
2023-02-22T11:16:36.875Z,23.46
2023-02-22T11:19:26.793Z,23.11
2023-02-22T11:22:19.859Z,23.52
2023-02-22T11:25:07.737Z,24.01
2023-02-22T11:28:03.267Z,23.74
2023-02-22T11:30:36.409Z,23.63
2023-02-22T11:33:33.684Z,23.71
2023-02-22T11:36:11.384Z,23.70
2023-02-22T11:39:00.543Z,23.65
2023-02-22T11:41:36.162Z,24.26
2023-02-22T11:44:32.844Z,24.36
2023-02-22T11:47:07.454Z,24.50
2023-02-22T11:53:13.547Z,25.08
2023-02-22T11:56:40.730Z,24.96
2023-02-22T11:59:34.858Z,25.00
2023-02-22T12:03:01.133Z,25.20
2023-02-22T12:05:37.409Z,25.46
2023-02-22T12:08:54.063Z,25.64
2023-02-22T12:11:43.516Z,25.75
2023-02-22T12:14:39.220Z,25.53
2023-02-22T12:17:21.910Z,26.11
2023-02-22T12:23:27.473Z,26.13
2023-02-22T12:26:11.717Z,26.48
2023-02-22T12:29:09.270Z,25.90
2023-02-22T12:31:38.836Z,26.50
2023-02-22T12:34:40.269Z,25.68
2023-02-22T12:37:19.360Z,26.42
2023-02-22T12:40:27.946Z,26.29
2023-02-22T12:43:34.630Z,26.74
2023-02-22T12:46:21.667Z,26.54
2023-02-22T12:49:38.514Z,26.80
2023-02-22T12:52:50.886Z,26.81
2023-02-22T12:59:04.195Z,26.99
2023-02-22T13:01:51.216Z,26.30
2023-02-22T13:04:21.306Z,26.79
2023-02-22T13:07:27.628Z,27.05
2023-02-22T13:10:31.389Z,26.37
2023-02-22T13:13:39.663Z,26.98
2023-02-22T13:16:25.508Z,26.39
2023-02-22T13:19:17.795Z,26.99
2023-02-22T13:22:06.812Z,27.35
2023-02-22T13:24:57.226Z,27.34
2023-02-22T13:27:37.628Z,27.08
2023-02-22T13:30:36.097Z,27.03
2023-02-22T13:36:33.820Z,27.05
2023-02-22T13:39:36.352Z,26.82
2023-02-22T13:42:43.932Z,27.16
2023-02-22T13:45:34.373Z,26.92
2023-02-22T13:48:37.618Z,26.81
2023-02-22T13:51:54.267Z,27.24
2023-02-22T13:54:56.883Z,26.86
2023-02-22T13:58:07.266Z,26.41
2023-02-22T14:00:54.374Z,26.36
2023-02-22T14:03:44.328Z,26.07
2023-02-22T14:06:45.658Z,25.99
2023-02-22T14:09:54.929Z,26.52
2023-02-22T14:15:29.952Z,26.17
2023-02-22T14:18:21.737Z,26.20
2023-02-22T14:21:26.784Z,26.19
2023-02-22T14:24:26.119Z,25.98
2023-02-22T14:27:18.672Z,25.53
2023-02-22T14:30:03.138Z,25.84
2023-02-22T14:32:42.294Z,26.00
2023-02-22T14:35:27.418Z,25.95
2023-02-22T14:38:08.075Z,25.59
2023-02-22T14:46:45.190Z,25.93
2023-02-22T14:49:26.423Z,25.88
2023-02-22T14:52:14.441Z,25.68
2023-02-22T14:55:55.778Z,25.56
2023-02-22T14:58:38.519Z,25.39
2023-02-22T15:01:55.215Z,24.61
2023-02-22T15:04:35.590Z,25.00
2023-02-22T15:07:37.265Z,24.62
2023-02-22T15:10:30.810Z,24.56
2023-02-22T15:16:08.197Z,24.16
2023-02-22T15:18:50.818Z,24.30
2023-02-22T15:21:31.934Z,23.76
2023-02-22T15:27:03.050Z,23.57
2023-02-22T15:29:52.675Z,23.40
2023-02-22T15:33:02.613Z,23.40
2023-02-22T15:35:58.208Z,23.24
2023-02-22T15:38:43.743Z,23.00
2023-02-22T15:41:28.171Z,22.78
2023-02-22T15:44:22.756Z,22.89
2023-02-22T15:47:01.430Z,21.81
2023-02-22T15:49:48.467Z,22.25
2023-02-22T15:52:42.111Z,22.15
2023-02-22T15:55:31.501Z,21.75
2023-02-22T15:58:36.651Z,22.09
2023-02-22T16:01:19.230Z,21.98
2023-02-22T16:03:56.891Z,21.91
2023-02-22T16:06:39.038Z,21.31
2023-02-22T16:09:36.405Z,21.67
2023-02-22T16:12:24.309Z,21.13
2023-02-22T16:14:54.739Z,21.18
2023-02-22T16:17:56.099Z,21.34
2023-02-22T16:20:36.412Z,21.18
2023-02-22T16:23:36.380Z,20.97
2023-02-22T16:26:33.521Z,21.02
2023-02-22T16:31:55.316Z,20.46
2023-02-22T16:34:26.076Z,20.79
2023-02-22T16:36:59.378Z,20.78
2023-02-22T16:39:40.840Z,20.53
2023-02-22T16:45:15.794Z,20.56
2023-02-22T16:47:59.997Z,20.44
2023-02-22T16:50:33.244Z,20.51
2023-02-22T16:53:11.304Z,20.35
2023-02-22T16:55:38.834Z,20.33
2023-02-22T16:58:25.438Z,20.39
2023-02-22T17:01:01.291Z,20.11
2023-02-22T17:03:29.788Z,20.22
2023-02-22T17:06:02.692Z,20.23
2023-02-22T17:08:52.528Z,20.12
2023-02-22T17:11:38.172Z,20.17
2023-02-22T17:17:06.936Z,19.90
2023-02-22T17:19:51.296Z,19.93
2023-02-22T17:22:27.511Z,19.92
2023-02-22T17:25:10.279Z,19.84
2023-02-22T17:27:46.539Z,19.84
2023-02-22T17:30:26.460Z,19.63
2023-02-22T17:33:03.888Z,19.72
2023-02-22T17:35:49.572Z,19.69
2023-02-22T17:38:28.188Z,19.53
2023-02-22T17:41:06.842Z,19.38
2023-02-22T17:43:47.484Z,19.65
2023-02-22T17:46:21.094Z,19.61
2023-02-22T17:55:02.436Z,19.51
2023-02-22T17:57:47.445Z,19.34
2023-02-22T18:00:35.595Z,19.23
2023-02-22T18:03:19.799Z,19.27
2023-02-22T18:06:37.202Z,19.39
2023-02-22T18:12:13.757Z,19.17
2023-02-22T18:14:53.450Z,19.19
2023-02-22T18:17:23.783Z,19.30
2023-02-22T18:19:56.530Z,19.26
2023-02-22T18:22:35.128Z,19.25
2023-02-22T18:25:16.913Z,19.21
2023-02-22T18:27:57.184Z,19.19
2023-02-22T18:30:24.985Z,19.25
2023-02-22T18:33:01.016Z,19.24
2023-02-22T18:35:37.493Z,19.31
2023-02-22T18:38:14.896Z,19.21
2023-02-22T18:40:55.429Z,19.27
2023-02-22T18:46:25.206Z,19.25
2023-02-22T18:49:08.074Z,19.14
2023-02-22T18:51:40.422Z,19.13
2023-02-22T18:54:18.567Z,19.20
2023-02-22T18:56:55.168Z,19.14
2023-02-22T18:59:26.044Z,19.09
2023-02-22T19:02:09.040Z,19.07
2023-02-22T19:04:44.523Z,19.05
2023-02-22T19:07:29.145Z,19.11
2023-02-22T19:10:07.319Z,19.13
2023-02-22T19:12:43.982Z,18.99
2023-02-22T19:15:13.277Z,18.99
2023-02-22T19:17:46.379Z,18.97
2023-02-22T19:20:13.842Z,19.02
2023-02-22T19:22:48.220Z,18.99
2023-02-22T19:25:18.479Z,19.04
2023-02-22T19:27:51.665Z,19.07
2023-02-22T19:30:21.949Z,19.12
2023-02-22T19:32:54.862Z,19.11
2023-02-22T19:35:33.331Z,19.12
2023-02-22T19:38:00.813Z,19.14
2023-02-22T19:40:32.736Z,19.13
2023-02-22T19:43:14.701Z,19.14
2023-02-22T19:45:55.122Z,19.06
2023-02-22T19:48:26.002Z,19.11
2023-02-22T19:51:02.557Z,19.19
2023-02-22T19:53:34.478Z,19.12
2023-02-22T19:56:17.534Z,19.11
2023-02-22T19:58:48.652Z,19.08
2023-02-22T20:01:28.706Z,19.06
2023-02-22T20:04:13.630Z,19.05
2023-02-22T20:07:07.327Z,19.04
2023-02-22T20:09:44.638Z,18.96
2023-02-22T20:12:37.397Z,18.91
2023-02-22T20:15:22.470Z,18.86
2023-02-22T20:17:58.477Z,18.83
2023-02-22T20:20:54.199Z,18.85
2023-02-22T20:23:40.511Z,18.84
2023-02-22T20:26:27.410Z,18.83
2023-02-22T20:29:01.288Z,18.80
2023-02-22T20:31:57.173Z,18.72
2023-02-22T20:34:44.914Z,18.71
2023-02-22T20:37:16.930Z,18.70
2023-02-22T20:39:54.331Z,18.71
2023-02-22T20:42:22.758Z,18.71
2023-02-22T20:45:00.196Z,18.70
2023-02-22T20:47:39.318Z,18.69
2023-02-22T20:50:14.993Z,18.68
2023-02-22T20:52:48.901Z,18.69
2023-02-22T20:55:25.313Z,18.62
2023-02-22T20:57:57.681Z,18.67
2023-02-22T21:00:28.942Z,18.74
2023-02-22T21:05:46.804Z,18.73
2023-02-22T21:08:17.777Z,18.73
2023-02-22T21:10:52.363Z,18.75
2023-02-22T21:13:30.989Z,18.68
2023-02-22T21:16:02.624Z,18.68
2023-02-22T21:18:33.730Z,18.70
2023-02-22T21:21:19.148Z,18.65
2023-02-22T21:23:55.169Z,18.69
2023-02-22T21:26:27.377Z,18.68
2023-02-22T21:29:09.483Z,18.66
2023-02-22T21:31:37.593Z,18.69
2023-02-22T21:34:07.995Z,18.69
2023-02-22T21:36:39.142Z,18.71
2023-02-22T21:39:20.918Z,18.68
2023-02-22T21:41:59.888Z,18.65
2023-02-22T21:44:30.542Z,18.63
2023-02-22T21:49:42.550Z,18.62
2023-02-22T21:52:12.789Z,18.62
2023-02-22T21:54:43.573Z,18.59
2023-02-22T21:57:15.102Z,18.59
2023-02-22T21:59:51.424Z,18.53
2023-02-22T22:02:40.291Z,18.49
2023-02-22T22:08:07.534Z,18.48
2023-02-22T22:10:40.181Z,18.42
2023-02-22T22:13:20.646Z,18.38
2023-02-22T22:16:34.575Z,18.40
2023-02-22T22:19:33.900Z,18.35
2023-02-22T22:22:08.473Z,18.34
2023-02-22T22:24:44.643Z,18.31
2023-02-22T22:27:15.204Z,18.29
2023-02-22T22:29:50.906Z,18.22
2023-02-22T22:32:44.907Z,18.20
2023-02-22T22:35:18.207Z,18.16
2023-02-22T22:37:56.995Z,18.14
2023-02-22T22:40:26.091Z,18.08
2023-02-22T22:42:53.655Z,18.07
2023-02-22T22:45:31.508Z,18.09
2023-02-22T22:48:09.923Z,18.01
2023-02-22T22:50:41.811Z,17.99
2023-02-22T22:55:53.237Z,18.01
2023-02-22T22:58:28.786Z,17.96
2023-02-22T23:01:02.836Z,17.94
2023-02-22T23:03:43.667Z,17.94
2023-02-22T23:06:15.811Z,17.89
2023-02-22T23:08:45.782Z,17.89
2023-02-22T23:11:13.567Z,17.83
2023-02-22T23:13:44.012Z,17.82
2023-02-22T23:21:45.360Z,17.74
2023-02-22T23:24:23.671Z,17.77
2023-02-22T23:27:17.529Z,17.72
2023-02-22T23:29:49.865Z,17.71
2023-02-22T23:32:24.967Z,17.71
2023-02-22T23:35:13.135Z,17.73
2023-02-22T23:38:17.867Z,17.67
2023-02-22T23:41:07.689Z,17.65
2023-02-22T23:43:44.644Z,17.66
2023-02-22T23:46:33.387Z,17.69
2023-02-22T23:49:02.639Z,17.65
2023-02-22T23:51:39.671Z,17.64
2023-02-22T23:54:12.680Z,17.60
2023-02-22T23:56:56.009Z,17.63
2023-02-22T23:59:32.823Z,17.59
